Time;durP1;ratioP1;P1;durP2;ratioP2;P2;SDS_P1;SDS_P2;PMS_P1;PMS_P2;Temp;Humidity;BMP_temperature;BMP_pressure;BME280_temperature;BME280_humidity;BME280_pressure;Samples;Min_cycle;Max_cycle;Signal;HPM_P1;HPM_P2
2020/12/03 00:01:13;;;;;;;40.80;23.93;;;;;;;1.03;98.38;98290.78;4373369;32;20146;-74
2020/12/03 00:03:47;;;;;;;34.83;20.70;;;;;;;0.64;97.69;98287.16;4381373;32;20251;-74
2020/12/03 00:06:32;;;;;;;39.10;22.87;;;;;;;0.45;99.96;98287.88;4381168;32;20167;-76
2020/12/03 00:09:06;;;;;;;40.63;24.63;;;;;;;0.31;99.79;98284.13;4383868;32;20352;-74
2020/12/03 00:11:41;;;;;;;33.37;20.37;;;;;;;0.38;100.00;98286.44;4375160;32;20177;-74
2020/12/03 00:14:13;;;;;;;41.23;23.93;;;;;;;0.60;100.00;98278.63;4374915;32;20543;-74
2020/12/03 00:16:44;;;;;;;44.33;24.17;;;;;;;0.62;99.26;98278.59;4374978;32;20171;-75
2020/12/03 00:19:15;;;;;;;40.03;23.57;;;;;;;0.33;99.46;98275.38;4378482;32;20172;-75
2020/12/03 00:21:48;;;;;;;37.10;21.43;;;;;;;0.37;99.90;98263.94;4390009;32;20153;-74
2020/12/03 00:24:20;;;;;;;35.63;23.03;;;;;;;0.58;100.00;98268.31;4387966;32;20223;-74
2020/12/03 00:26:51;;;;;;;30.37;19.10;;;;;;;0.57;99.02;98261.41;4387768;32;20210;-76
2020/12/03 00:29:23;;;;;;;41.17;24.57;;;;;;;0.74;99.14;98259.88;4386192;32;20503;-74
2020/12/03 00:32:06;;;;;;;39.83;24.27;;;;;;;0.81;98.56;98264.81;4374145;32;20164;-74
2020/12/03 00:34:37;;;;;;;36.00;22.50;;;;;;;0.67;97.60;98261.91;4372526;32;20525;-74
2020/12/03 00:37:07;;;;;;;37.10;22.07;;;;;;;0.67;98.50;98256.72;4385187;32;20176;-74
2020/12/03 00:39:38;;;;;;;30.13;19.60;;;;;;;0.74;98.47;98263.34;4380330;32;20598;-75
2020/12/03 00:42:10;;;;;;;38.00;23.03;;;;;;;0.82;98.11;98255.22;4389089;32;20155;-74
2020/12/03 00:44:42;;;;;;;38.77;25.10;;;;;;;0.92;98.46;98249.63;4382451;32;20202;-74
2020/12/03 00:47:14;;;;;;;31.90;20.53;;;;;;;0.48;98.90;98250.50;4380067;32;20551;-76
2020/12/03 00:49:44;;;;;;;38.97;24.20;;;;;;;0.58;99.71;98242.31;4377943;32;20205;-75
2020/12/03 00:52:15;;;;;;;36.53;23.90;;;;;;;0.55;98.99;98239.84;4377528;32;20160;-75
2020/12/03 00:54:46;;;;;;;42.37;25.47;;;;;;;0.54;99.06;98232.09;4382025;32;20564;-74
2020/12/03 00:57:16;;;;;;;41.63;24.30;;;;;;;0.42;99.12;98222.19;4386429;32;20176;-75
2020/12/03 00:59:47;;;;;;;39.87;24.27;;;;;;;0.23;100.00;98218.59;4387389;32;20166;-74
2020/12/03 01:02:19;;;;;;;40.57;22.10;;;;;;;0.41;100.00;98229.12;4384963;32;20173;-74
2020/12/03 01:04:51;;;;;;;37.43;24.00;;;;;;;0.55;100.00;98229.44;4388872;32;20241;-75
2020/12/03 01:07:22;;;;;;;41.70;24.90;;;;;;;0.35;100.00;98234.56;4386253;32;20181;-74
2020/12/03 01:09:53;;;;;;;39.37;23.00;;;;;;;0.25;100.00;98232.37;4385235;32;20161;-76
2020/12/03 01:12:23;;;;;;;39.97;23.67;;;;;;;0.44;100.00;98244.62;4374474;32;20180;-74
2020/12/03 01:14:55;;;;;;;38.97;23.60;;;;;;;0.52;100.00;98232.16;4387877;32;20162;-74
2020/12/03 01:17:28;;;;;;;37.37;22.50;;;;;;;0.35;100.00;98239.75;4388837;32;20145;-75
2020/12/03 01:19:59;;;;;;;42.97;25.23;;;;;;;0.49;100.00;98227.06;4388845;32;20268;-76
2020/12/03 01:22:31;;;;;;;49.30;24.53;;;;;;;0.49;100.00;98224.47;4390145;32;20171;-75
2020/12/03 01:25:12;;;;;;;40.33;24.73;;;;;;;0.33;100.00;98222.53;4389718;32;20652;-75
2020/12/03 01:27:55;;;;;;;43.20;25.23;;;;;;;0.40;100.00;98224.84;4387259;32;20228;-74
2020/12/03 01:30:28;;;;;;;37.13;23.50;;;;;;;0.43;100.00;98211.72;4378317;32;20179;-74
2020/12/03 01:33:00;;;;;;;40.07;24.03;;;;;;;0.57;100.00;98219.81;4380649;32;20179;-74
2020/12/03 01:35:32;;;;;;;33.37;19.70;;;;;;;0.77;100.00;98210.34;4378941;32;20619;-74
2020/12/03 01:38:03;;;;;;;29.77;18.40;;;;;;;0.93;100.00;98208.81;4374064;32;20146;-76
2020/12/03 01:40:34;;;;;;;36.83;22.53;;;;;;;1.03;100.00;98204.94;4379849;32;20199;-74
2020/12/03 01:43:04;;;;;;;44.27;24.43;;;;;;;1.10;99.73;98212.41;4388789;32;20184;-74
2020/12/03 01:45:57;;;;;;;33.30;20.10;;;;;;;0.70;99.12;98203.75;4386543;32;20158;-76
2020/12/03 01:48:44;;;;;;;36.43;21.20;;;;;;;0.87;100.00;98196.09;4384912;32;20278;-74
2020/12/03 01:51:22;;;;;;;33.77;20.33;;;;;;;1.00;100.00;98186.84;4388086;32;20147;-75
2020/12/03 01:53:56;;;;;;;36.50;22.17;;;;;;;1.08;100.00;98179.56;4384802;32;20178;-74
2020/12/03 01:56:41;;;;;;;37.03;21.57;;;;;;;1.04;100.00;98176.25;4383801;32;20242;-75
2020/12/03 01:59:13;;;;;;;30.63;19.10;;;;;;;1.09;99.68;98179.53;4374392;32;20194;-75
2020/12/03 02:01:45;;;;;;;38.23;23.33;;;;;;;1.12;99.19;98170.75;4374420;32;20151;-75
2020/12/03 02:04:17;;;;;;;39.80;24.60;;;;;;;1.14;98.87;98169.75;4369396;32;20179;-76
2020/12/03 02:06:48;;;;;;;37.33;22.63;;;;;;;0.85;99.47;98171.87;4380614;32;20202;-75
2020/12/03 02:09:20;;;;;;;33.53;21.23;;;;;;;0.87;99.61;98170.09;4387216;32;20218;-74
2020/12/03 02:11:51;;;;;;;33.50;20.77;;;;;;;0.96;100.00;98165.31;4383968;32;20540;-74
2020/12/03 02:14:21;;;;;;;35.53;21.67;;;;;;;1.05;99.96;98148.47;4382572;32;20667;-74
2020/12/03 02:16:57;;;;;;;43.37;24.20;;;;;;;1.16;99.63;98156.66;4384469;32;20204;-75
2020/12/03 02:19:31;;;;;;;43.13;24.73;;;;;;;1.02;99.89;98144.25;4371020;32;20159;-75
2020/12/03 02:22:07;;;;;;;37.20;22.67;;;;;;;0.94;99.73;98140.28;4374418;32;20199;-75
2020/12/03 02:24:40;;;;;;;38.07;23.33;;;;;;;0.88;100.00;98145.75;4369957;32;20190;-76
2020/12/03 02:27:12;;;;;;;36.03;21.87;;;;;;;0.86;100.00;98137.16;4378096;32;20161;-75
2020/12/03 02:29:43;;;;;;;40.63;24.10;;;;;;;0.86;100.00;98138.03;4386792;32;20195;-75
2020/12/03 02:32:23;;;;;;;43.20;25.23;;;;;;;0.85;100.00;98125.06;4380968;32;20161;-75
2020/12/03 02:34:55;;;;;;;43.00;23.77;;;;;;;0.73;100.00;98128.22;4385004;32;20173;-75
2020/12/03 02:37:30;;;;;;;32.47;20.77;;;;;;;0.81;100.00;98128.72;4387130;32;20580;-77
2020/12/03 02:40:06;;;;;;;40.03;25.67;;;;;;;0.87;100.00;98128.47;4387031;32;20183;-76
2020/12/03 02:42:36;;;;;;;36.33;22.97;;;;;;;0.80;100.00;98127.03;4388030;32;20186;-74
2020/12/03 02:45:07;;;;;;;42.40;24.90;;;;;;;0.84;100.00;98120.78;4387428;32;20223;-74
2020/12/03 02:47:37;;;;;;;37.17;22.57;;;;;;;0.74;100.00;98114.28;4387019;32;20175;-75
2020/12/03 02:50:08;;;;;;;39.30;24.03;;;;;;;0.79;100.00;98120.97;4385086;32;20175;-75
2020/12/03 02:52:40;;;;;;;41.07;24.23;;;;;;;0.83;100.00;98119.94;4386006;32;20182;-75
2020/12/03 02:55:11;;;;;;;38.80;24.23;;;;;;;0.83;100.00;98116.50;4383352;32;20217;-75
2020/12/03 02:57:42;;;;;;;37.90;22.10;;;;;;;0.83;100.00;98117.34;4384860;32;20201;-75
2020/12/03 03:00:13;;;;;;;47.83;27.33;;;;;;;0.91;100.00;98114.41;4388660;32;20172;-74
2020/12/03 03:02:44;;;;;;;36.90;21.40;;;;;;;0.74;100.00;98112.53;4389113;32;20195;-76
2020/12/03 03:05:15;;;;;;;44.80;26.97;;;;;;;0.82;100.00;98120.00;4376152;32;20221;-74
2020/12/03 03:07:47;;;;;;;38.93;22.03;;;;;;;0.91;100.00;98122.22;4384039;32;20236;-76
2020/12/03 03:10:29;;;;;;;42.10;25.77;;;;;;;1.06;100.00;98125.00;4381416;32;20185;-75
2020/12/03 03:13:08;;;;;;;45.07;26.00;;;;;;;1.04;100.00;98110.34;4381894;32;20225;-76
2020/12/03 03:15:40;;;;;;;41.70;25.30;;;;;;;0.84;100.00;98111.22;4387232;32;20465;-75
2020/12/03 03:18:11;;;;;;;34.87;20.97;;;;;;;0.93;100.00;98108.22;4385900;32;20182;-75
2020/12/03 03:20:43;;;;;;;39.73;24.37;;;;;;;1.04;99.87;98115.56;4387395;32;20158;-76
2020/12/03 03:23:15;;;;;;;41.90;25.33;;;;;;;1.07;99.57;98120.63;4374131;32;20161;-75
2020/12/03 03:25:47;;;;;;;45.17;27.63;;;;;;;1.10;99.19;98110.94;4382148;32;20262;-74
2020/12/03 03:28:18;;;;;;;43.07;25.97;;;;;;;0.89;98.83;98114.50;4383115;32;20180;-75
2020/12/03 03:30:49;;;;;;;45.73;26.70;;;;;;;0.79;99.31;98115.78;4385672;32;20165;-74
2020/12/03 03:33:20;;;;;;;39.23;26.27;;;;;;;0.62;99.18;98118.22;4385605;32;20590;-74
2020/12/03 03:35:51;;;;;;;41.80;24.40;;;;;;;0.65;99.66;98122.50;4386679;32;20253;-77
2020/12/03 03:38:22;;;;;;;43.40;26.17;;;;;;;0.79;99.75;98114.91;4373996;32;20231;-75
2020/12/03 03:40:54;;;;;;;39.50;26.43;;;;;;;0.81;99.10;98107.94;4387545;32;20621;-76
2020/12/03 03:43:25;;;;;;;40.00;23.83;;;;;;;0.69;98.45;98103.22;4387253;32;20150;-76
2020/12/03 03:45:56;;;;;;;43.83;26.67;;;;;;;0.70;99.03;98099.72;4386978;32;20222;-74
2020/12/03 03:48:27;;;;;;;42.67;26.00;;;;;;;0.62;98.33;98094.84;4384168;32;20252;-74
2020/12/03 03:50:59;;;;;;;37.83;24.47;;;;;;;0.68;98.57;98097.19;4379662;32;20174;-76
2020/12/03 03:53:31;;;;;;;41.27;25.53;;;;;;;0.75;98.20;98093.44;4378287;32;20600;-75
2020/12/03 03:56:03;;;;;;;39.47;25.50;;;;;;;0.66;97.63;98098.16;4374507;32;20248;-75
2020/12/03 03:58:33;;;;;;;43.17;24.97;;;;;;;0.64;97.65;98100.84;4371027;32;20229;-75
2020/12/03 04:01:05;;;;;;;39.77;24.90;;;;;;;0.59;98.31;98088.00;4370921;32;20215;-75
2020/12/03 04:03:36;;;;;;;41.10;24.50;;;;;;;0.68;97.20;98094.56;4377032;32;20210;-75
2020/12/03 04:06:07;;;;;;;43.00;25.90;;;;;;;0.76;97.10;98094.28;4383058;32;20260;-77
2020/12/03 04:08:39;;;;;;;36.87;23.40;;;;;;;0.79;96.77;98091.53;4384900;32;20237;-76
2020/12/03 04:11:10;;;;;;;34.90;22.23;;;;;;;0.88;97.06;98091.12;4381006;32;20165;-75
2020/12/03 04:13:44;;;;;;;37.50;22.80;;;;;;;0.89;96.16;98085.03;4383107;32;20238;-75
2020/12/03 04:16:14;;;;;;;38.47;24.53;;;;;;;0.80;96.79;98083.66;4385675;32;20892;-75
2020/12/03 04:18:46;;;;;;;39.40;22.67;;;;;;;0.73;96.45;98081.41;4383277;32;20159;-79
2020/12/03 04:21:17;;;;;;;38.27;24.33;;;;;;;0.83;96.88;98080.09;4378243;32;20186;-74
2020/12/03 04:23:50;;;;;;;45.40;25.60;;;;;;;0.85;96.56;98078.25;4377951;32;20491;-76
2020/12/03 04:26:20;;;;;;;37.30;23.13;;;;;;;0.90;96.34;98078.94;4387921;32;20584;-75
2020/12/03 04:28:51;;;;;;;36.30;22.63;;;;;;;1.04;96.80;98074.78;4386475;32;20240;-76
2020/12/03 04:31:21;;;;;;;33.37;22.53;;;;;;;1.11;96.07;98071.03;4386236;32;20593;-75
2020/12/03 04:33:53;;;;;;;31.87;19.43;;;;;;;1.16;95.81;98063.00;4381316;32;20224;-74
2020/12/03 04:36:23;;;;;;;38.23;24.23;;;;;;;1.20;95.31;98059.34;4373875;32;20198;-75
2020/12/03 04:38:56;;;;;;;40.57;25.07;;;;;;;1.17;95.51;98056.91;4372063;32;20679;-75
2020/12/03 04:41:26;;;;;;;35.57;21.97;;;;;;;1.18;95.10;98066.38;4377398;32;20174;-74
2020/12/03 04:44:03;;;;;;;34.73;21.00;;;;;;;1.17;95.37;98062.09;4368945;32;20181;-77
2020/12/03 04:46:38;;;;;;;33.40;20.90;;;;;;;1.11;95.35;98059.75;4372074;32;20590;-76
2020/12/03 04:49:29;;;;;;;37.83;24.67;;;;;;;1.19;95.67;98055.06;4378539;32;20679;-76
2020/12/03 04:52:42;;;;;;;40.00;26.10;;;;;;;1.04;95.78;98043.56;4378268;32;20174;-76
2020/12/03 04:55:25;;;;;;;39.77;25.77;;;;;;;1.04;96.35;98040.97;4380274;32;20294;-75
2020/12/03 04:58:04;;;;;;;36.53;22.00;;;;;;;1.03;96.50;98046.25;4376128;32;20276;-75
2020/12/03 05:00:50;;;;;;;35.50;22.67;;;;;;;1.04;96.11;98042.72;4374297;32;20506;-75
2020/12/03 05:04:03;;;;;;;34.40;21.27;;;;;;;1.12;96.37;98045.84;4385946;32;20162;-75
2020/12/03 05:07:00;;;;;;;32.77;20.67;;;;;;;1.11;96.78;98039.81;4377432;32;20169;-75
2020/12/03 05:09:36;;;;;;;35.57;23.03;;;;;;;1.22;96.78;98031.50;4376289;32;20165;-76
2020/12/03 05:12:15;;;;;;;35.77;22.63;;;;;;;1.25;96.27;98033.97;4375154;32;20179;-75
2020/12/03 05:14:49;;;;;;;36.30;22.20;;;;;;;1.08;96.42;98033.87;4374323;32;20529;-74
2020/12/03 05:17:44;;;;;;;41.30;24.70;;;;;;;1.20;97.01;98033.34;4376275;32;20172;-75
2020/12/03 05:20:38;;;;;;;32.17;20.30;;;;;;;0.98;96.60;98032.63;4372930;32;20156;-74
2020/12/03 05:23:16;;;;;;;33.27;20.60;;;;;;;1.11;97.47;98025.94;4376595;32;20238;-75
2020/12/03 05:25:49;;;;;;;31.77;20.10;;;;;;;1.22;96.88;98013.28;4387883;32;20169;-76
2020/12/03 05:28:58;;;;;;;39.73;23.50;;;;;;;1.26;96.28;98007.03;4387989;32;20199;-75
2020/12/03 05:31:52;;;;;;;31.63;19.83;;;;;;;1.28;96.07;98005.19;4373414;32;20185;-75
2020/12/03 05:34:29;;;;;;;33.73;20.00;;;;;;;1.35;96.11;97998.78;4378634;32;20245;-77
2020/12/03 05:37:02;;;;;;;33.47;21.93;;;;;;;1.38;96.05;98006.44;4372373;32;20203;-75
2020/12/03 05:39:35;;;;;;;33.80;20.80;;;;;;;1.39;96.21;97995.13;4371872;32;20168;-77
2020/12/03 05:42:09;;;;;;;29.43;19.50;;;;;;;1.39;95.84;97994.28;4372497;32;20568;-77
2020/12/03 05:44:43;;;;;;;28.53;18.57;;;;;;;1.38;95.55;97985.62;4374679;32;20211;-83
2020/12/03 05:47:24;;;;;;;36.83;22.83;;;;;;;1.43;95.46;97982.84;4385679;32;20184;-77
2020/12/03 05:49:57;;;;;;;31.33;20.17;;;;;;;1.40;95.17;97982.97;4373611;32;20657;-75
2020/12/03 05:52:29;;;;;;;37.70;25.10;;;;;;;1.40;95.28;97968.22;4386828;32;20494;-76
2020/12/03 05:55:04;;;;;;;33.13;22.13;;;;;;;1.32;95.36;97967.69;4383850;32;20348;-76
2020/12/03 05:57:36;;;;;;;36.87;22.63;;;;;;;1.36;95.57;97971.84;4372654;32;20199;-75
2020/12/03 06:00:26;;;;;;;37.00;22.80;;;;;;;1.32;95.07;97965.09;4370675;32;20708;-75
2020/12/03 06:03:25;;;;;;;34.60;21.77;;;;;;;1.39;96.00;97966.50;4380468;32;20224;-76
2020/12/03 06:06:12;;;;;;;32.57;21.40;;;;;;;1.48;95.81;97955.66;4382989;32;20271;-76
2020/12/03 06:09:02;;;;;;;33.00;19.97;;;;;;;1.49;95.63;97959.09;4383785;32;20200;-74
2020/12/03 06:11:40;;;;;;;33.43;19.80;;;;;;;1.47;95.94;97953.13;4369252;32;20163;-76
2020/12/03 06:14:42;;;;;;;34.10;21.37;;;;;;;1.54;95.90;97955.38;4378809;32;20222;-76
2020/12/03 06:17:46;;;;;;;32.20;22.63;;;;;;;1.54;94.96;97955.38;4385567;32;20857;-75
2020/12/03 06:20:51;;;;;;;32.63;21.80;;;;;;;1.58;95.28;97951.69;4376473;32;20228;-76
2020/12/03 06:23:47;;;;;;;34.70;21.90;;;;;;;1.60;95.04;97952.47;4371308;32;20238;-77
2020/12/03 06:26:35;;;;;;;28.17;18.27;;;;;;;1.51;94.62;97950.31;4372390;32;20204;-76
2020/12/03 06:29:36;;;;;;;30.30;20.43;;;;;;;1.55;95.08;97951.84;4378374;32;20610;-78
2020/12/03 06:32:38;;;;;;;30.67;18.97;;;;;;;1.50;94.80;97946.03;4366268;32;20243;-77
2020/12/03 06:35:28;;;;;;;31.73;19.33;;;;;;;1.55;95.62;97951.84;4364399;32;20634;-74
2020/12/03 06:38:04;;;;;;;26.30;17.33;;;;;;;1.40;95.68;97949.13;4371291;32;20276;-75
2020/12/03 06:40:35;;;;;;;28.77;18.93;;;;;;;1.49;95.94;97949.53;4371669;32;20184;-75
2020/12/03 06:43:12;;;;;;;29.60;18.83;;;;;;;1.31;95.65;97945.22;4371665;32;20243;-75
2020/12/03 06:45:47;;;;;;;27.60;18.90;;;;;;;1.44;95.74;97943.69;4366280;32;20166;-78
2020/12/03 06:48:40;;;;;;;26.90;17.73;;;;;;;1.47;95.72;97938.34;4356508;32;20583;-79
2020/12/03 06:51:39;;;;;;;27.33;18.27;;;;;;;1.51;96.73;97939.91;4364331;32;20233;-78
2020/12/03 06:54:37;;;;;;;30.73;18.83;;;;;;;1.56;95.68;97937.91;4339732;32;20200;-77
2020/12/03 06:57:47;;;;;;;21.90;15.17;;;;;;;1.40;95.40;97936.97;4363136;32;20221;-77
2020/12/03 07:00:48;;;;;;;26.07;16.30;;;;;;;1.48;96.18;97940.06;4311189;32;20541;-77
2020/12/03 07:03:43;;;;;;;21.10;13.50;;;;;;;1.57;94.96;97943.97;4367265;32;20175;-79
2020/12/03 07:06:49;;;;;;;13.83;10.27;;;;;;;1.58;93.24;97936.06;4354464;32;20236;-75
2020/12/03 07:09:37;;;;;;;15.50;11.50;;;;;;;1.64;91.25;97933.19;4368156;32;20569;-76
2020/12/03 07:12:41;;;;;;;13.50;10.10;;;;;;;1.71;90.30;97933.72;4369216;32;20262;-77
2020/12/03 07:15:48;;;;;;;13.27;10.23;;;;;;;1.79;90.13;97923.78;4360324;32;20229;-77
2020/12/03 07:18:49;;;;;;;13.73;10.53;;;;;;;1.79;89.68;97929.00;4367907;32;20214;-76
2020/12/03 07:21:52;;;;;;;12.20;8.70;;;;;;;1.75;88.97;97923.06;4358872;32;20197;-78
2020/12/03 07:24:25;;;;;;;12.53;8.87;;;;;;;1.81;89.03;97919.31;4357878;32;20221;-77
2020/12/03 07:27:06;;;;;;;12.83;8.97;;;;;;;1.85;88.31;97920.03;4360303;32;20248;-76
2020/12/03 07:29:55;;;;;;;13.43;9.90;;;;;;;1.83;88.31;97914.03;4369043;32;20241;-76
2020/12/03 07:32:40;;;;;;;13.70;10.40;;;;;;;1.89;88.00;97916.34;4360370;32;20595;-76
2020/12/03 07:35:25;;;;;;;13.57;9.33;;;;;;;1.89;87.91;97913.72;4362369;32;20170;-74
2020/12/03 07:38:01;;;;;;;13.73;9.87;;;;;;;1.95;87.89;97916.03;4361624;32;20181;-76
2020/12/03 07:40:30;;;;;;;14.20;10.67;;;;;;;1.98;87.35;97908.91;4362719;32;20561;-76
2020/12/03 07:43:03;;;;;;;13.73;9.83;;;;;;;1.99;87.05;97914.97;4360615;32;20193;-77
2020/12/03 07:45:43;;;;;;;15.00;9.83;;;;;;;2.08;87.83;97914.47;4356564;32;20233;-77
2020/12/03 07:48:16;;;;;;;11.20;9.40;;;;;;;2.05;87.18;97917.28;4359076;32;20264;-79
2020/12/03 07:50:48;;;;;;;10.40;8.13;;;;;;;2.09;87.20;97906.59;4357694;32;20443;-80
2020/12/03 07:53:20;;;;;;;13.20;8.77;;;;;;;2.12;87.75;97905.59;4355615;32;20209;-79
2020/12/03 07:55:49;;;;;;;11.13;9.30;;;;;;;2.13;87.18;97902.91;4370570;32;20201;-75
2020/12/03 07:58:36;;;;;;;11.27;9.07;;;;;;;2.08;85.86;97891.88;4368404;32;20178;-77
2020/12/03 08:01:05;;;;;;;10.57;8.93;;;;;;;2.04;86.09;97892.13;4355552;33;20313;-76
2020/12/03 08:03:41;;;;;;;12.77;9.33;;;;;;;2.03;85.76;97886.06;4358694;32;20756;-77
2020/12/03 08:06:13;;;;;;;12.23;8.87;;;;;;;2.08;85.44;97884.06;4359532;32;20234;-79
2020/12/03 08:08:41;;;;;;;10.07;7.97;;;;;;;2.20;85.48;97882.59;4361291;32;20174;-76
2020/12/03 08:11:38;;;;;;;10.27;8.93;;;;;;;2.27;85.47;97871.75;4374167;32;20215;-75
2020/12/03 08:14:32;;;;;;;9.63;7.40;;;;;;;2.30;85.24;97870.78;4361802;32;20166;-76
2020/12/03 08:17:00;;;;;;;7.77;6.83;;;;;;;2.25;83.64;97875.37;4368254;32;20183;-75
2020/12/03 08:19:30;;;;;;;9.40;7.40;;;;;;;2.32;83.58;97876.75;4371390;32;20238;-76
2020/12/03 08:21:57;;;;;;;8.73;7.47;;;;;;;2.37;83.52;97868.69;4371540;32;20187;-77
2020/12/03 08:24:26;;;;;;;7.50;6.80;;;;;;;2.37;83.30;97866.94;4371800;32;20163;-75
2020/12/03 08:26:59;;;;;;;7.87;6.30;;;;;;;2.40;81.84;97864.16;4364602;32;20184;-76
2020/12/03 08:29:44;;;;;;;8.63;6.50;;;;;;;2.44;81.15;97855.28;4371967;32;20222;-76
2020/12/03 08:32:11;;;;;;;7.23;5.70;;;;;;;2.56;80.92;97849.38;4367422;32;20206;-77
2020/12/03 08:34:41;;;;;;;7.33;5.57;;;;;;;2.59;80.40;97838.78;4368068;32;20171;-76
2020/12/03 08:37:12;;;;;;;6.83;5.10;;;;;;;2.60;79.76;97837.88;4365021;32;20229;-75
2020/12/03 08:39:44;;;;;;;8.93;5.37;;;;;;;2.74;77.98;97831.91;4361883;32;20249;-75
2020/12/03 08:42:12;;;;;;;6.97;5.53;;;;;;;2.87;78.03;97831.16;4357894;32;20226;-79
2020/12/03 08:44:41;;;;;;;7.43;5.43;;;;;;;2.99;76.94;97831.41;4357373;32;20697;-76
2020/12/03 08:47:11;;;;;;;4.07;3.67;;;;;;;3.04;76.86;97834.59;4358241;32;20573;-75
2020/12/03 08:49:43;;;;;;;5.17;3.87;;;;;;;3.02;74.62;97826.84;4363063;32;20593;-77
2020/12/03 08:52:11;;;;;;;4.90;3.90;;;;;;;3.08;73.74;97821.28;4360872;32;20231;-79
2020/12/03 08:54:38;;;;;;;6.73;4.33;;;;;;;2.97;73.58;97823.66;4367528;32;20203;-77
2020/12/03 08:57:11;;;;;;;6.83;5.07;;;;;;;3.00;72.95;97825.25;4364442;32;20455;-75
2020/12/03 08:59:44;;;;;;;6.73;5.27;;;;;;;2.97;74.10;97817.59;4360661;32;20553;-77
2020/12/03 09:02:16;;;;;;;7.70;5.13;;;;;;;3.04;74.79;97818.94;4372893;32;20167;-77
2020/12/03 09:04:49;;;;;;;8.63;5.83;;;;;;;3.11;75.50;97809.84;4370147;32;20179;-76
2020/12/03 09:07:20;;;;;;;6.53;5.60;;;;;;;3.14;75.10;97807.91;4353872;32;20205;-77
2020/12/03 09:09:48;;;;;;;7.80;5.70;;;;;;;3.15;74.53;97800.91;4358102;32;20183;-75
2020/12/03 09:12:20;;;;;;;10.73;6.33;;;;;;;3.11;74.26;97799.41;4365071;32;20242;-77
2020/12/03 09:14:49;;;;;;;8.87;7.30;;;;;;;3.22;76.03;97797.03;4353881;32;20603;-80
2020/12/03 09:17:19;;;;;;;11.33;8.40;;;;;;;3.15;76.32;97790.44;4352166;32;20204;-78
2020/12/03 09:19:47;;;;;;;9.90;7.87;;;;;;;3.17;76.84;97788.63;4362488;32;20191;-76
2020/12/03 09:22:16;;;;;;;10.23;7.37;;;;;;;3.11;77.30;97781.13;4367386;32;20247;-75
2020/12/03 09:24:48;;;;;;;11.33;8.20;;;;;;;3.05;77.23;97784.09;4353808;32;20227;-76
2020/12/03 09:27:16;;;;;;;11.23;8.10;;;;;;;3.17;77.78;97772.97;4361059;32;20242;-77
2020/12/03 09:29:49;;;;;;;12.73;8.20;;;;;;;3.17;77.09;97778.19;4357239;32;20401;-77
2020/12/03 09:32:21;;;;;;;11.83;8.67;;;;;;;3.23;76.94;97780.44;4357716;32;20266;-75
2020/12/03 09:34:53;;;;;;;10.70;8.83;;;;;;;3.31;77.19;97786.88;4356072;32;20187;-75
2020/12/03 09:37:21;;;;;;;11.50;8.83;;;;;;;3.33;77.75;97779.81;4365033;32;20215;-75
2020/12/03 09:39:49;;;;;;;12.43;9.80;;;;;;;3.33;77.22;97778.97;4362924;32;20221;-80
2020/12/03 09:42:18;;;;;;;11.17;8.43;;;;;;;3.32;77.10;97772.06;4357182;32;20184;-76
2020/12/03 09:44:53;;;;;;;10.30;8.53;;;;;;;3.34;76.43;97762.41;4359422;32;20193;-75
2020/12/03 09:47:26;;;;;;;11.47;8.97;;;;;;;3.32;76.40;97751.19;4363859;32;20635;-76
2020/12/03 09:49:55;;;;;;;11.17;8.80;;;;;;;3.29;76.36;97746.97;4355926;32;20591;-78
2020/12/03 09:52:24;;;;;;;9.53;8.17;;;;;;;3.41;76.60;97740.19;4357191;32;20175;-78
2020/12/03 09:54:51;;;;;;;11.93;8.80;;;;;;;3.66;74.75;97732.59;4363931;32;20293;-75
2020/12/03 09:57:19;;;;;;;10.70;8.87;;;;;;;3.50;76.09;97734.44;4370418;32;20632;-77
2020/12/03 09:59:47;;;;;;;8.97;8.00;;;;;;;3.58;76.36;97727.00;4371427;32;20684;-75
2020/12/03 10:02:39;;;;;;;10.30;8.30;;;;;;;3.54;75.38;97725.47;4368778;32;20186;-77
2020/12/03 10:05:25;;;;;;;9.80;8.67;;;;;;;3.54;75.37;97715.03;4367576;32;20215;-75
2020/12/03 10:08:21;;;;;;;10.47;8.10;;;;;;;3.28;75.74;97710.53;4359728;32;20205;-75
2020/12/03 10:11:07;;;;;;;11.17;9.27;;;;;;;3.32;76.96;97704.19;4369938;32;20674;-77
2020/12/03 10:14:23;;;;;;;13.13;9.30;;;;;;;3.31;75.87;97697.31;4356469;32;20605;-76
2020/12/03 10:17:02;;;;;;;12.37;9.97;;;;;;;3.46;76.66;97685.94;4357816;32;20227;-75
2020/12/03 10:19:31;;;;;;;10.60;8.30;;;;;;;3.63;76.28;97687.53;4372415;32;20537;-81
2020/12/03 10:22:03;;;;;;;10.23;8.07;;;;;;;3.51;75.86;97683.87;4371801;32;20169;-75
2020/12/03 10:24:38;;;;;;;11.10;8.57;;;;;;;3.64;76.16;97673.53;4371921;32;20226;-76
2020/12/03 10:27:09;;;;;;;9.50;7.90;;;;;;;3.60;76.13;97669.44;4369696;32;20190;-75
2020/12/03 10:29:54;;;;;;;10.80;8.70;;;;;;;3.57;74.77;97665.22;4371543;32;20178;-75
2020/12/03 10:32:24;;;;;;;10.10;7.43;;;;;;;3.57;74.76;97661.78;4362728;32;20560;-75
2020/12/03 10:34:52;;;;;;;8.43;6.87;;;;;;;3.58;73.02;97643.41;4370290;32;20269;-76
2020/12/03 10:37:27;;;;;;;9.83;7.43;;;;;;;3.59;72.50;97650.34;4360168;32;20240;-77
2020/12/03 10:39:59;;;;;;;9.40;7.00;;;;;;;3.65;72.19;97636.88;4363566;32;20298;-76
2020/12/03 10:42:39;;;;;;;10.10;7.80;;;;;;;4.07;71.95;97636.81;4369502;32;20239;-75
2020/12/03 10:45:12;;;;;;;11.33;7.20;;;;;;;3.93;71.83;97634.25;4360600;32;20230;-76
2020/12/03 10:47:46;;;;;;;8.57;7.10;;;;;;;3.74;71.68;97633.69;4355225;32;20235;-76
2020/12/03 10:50:18;;;;;;;8.93;6.90;;;;;;;3.84;71.80;97624.38;4358042;32;20193;-76
2020/12/03 10:55:22;;;;;;;7.97;7.10;;;;;;;3.73;71.68;97626.81;4370707;32;20171;-76
2020/12/03 10:57:59;;;;;;;8.17;6.27;;;;;;;3.70;71.49;97632.22;4373453;32;20170;-77
2020/12/03 11:00:28;;;;;;;9.47;6.90;;;;;;;4.01;71.80;97633.78;4367697;32;20674;-74
2020/12/03 11:03:01;;;;;;;7.50;6.60;;;;;;;4.13;71.87;97635.59;4380516;32;20667;-76
2020/12/03 11:05:29;;;;;;;7.10;6.07;;;;;;;3.67;70.38;97634.19;4384712;32;20557;-79
2020/12/03 11:07:57;;;;;;;7.33;6.30;;;;;;;3.90;72.43;97634.44;4368565;32;20211;-80
2020/12/03 11:10:28;;;;;;;8.17;7.03;;;;;;;4.06;71.84;97639.56;4377143;32;20209;-77
2020/12/03 11:13:19;;;;;;;9.93;7.53;;;;;;;3.97;71.73;97630.50;4379521;32;20221;-77
2020/12/03 11:15:50;;;;;;;12.73;7.60;;;;;;;3.95;72.19;97619.31;4382650;32;20159;-76
2020/12/03 11:18:28;;;;;;;8.60;6.13;;;;;;;3.81;72.00;97608.91;4374358;32;20176;-76
2020/12/03 11:21:00;;;;;;;8.73;6.93;;;;;;;3.75;72.46;97601.44;4376378;32;20178;-75
2020/12/03 11:23:38;;;;;;;9.80;7.33;;;;;;;3.95;72.73;97594.97;4382992;32;20171;-76
2020/12/03 11:26:11;;;;;;;9.67;7.60;;;;;;;4.05;72.12;97591.66;4386184;32;20159;-74
2020/12/03 11:28:43;;;;;;;9.83;7.03;;;;;;;4.02;72.48;97591.84;4373253;32;20727;-75
2020/12/03 11:31:39;;;;;;;9.77;7.57;;;;;;;3.88;72.22;97591.03;4374340;32;20469;-75
2020/12/03 11:34:11;;;;;;;10.03;7.23;;;;;;;3.54;73.02;97594.09;4360613;32;20211;-75
2020/12/03 11:36:43;;;;;;;12.97;8.40;;;;;;;3.59;73.26;97586.81;4357280;32;20202;-76
2020/12/03 11:39:17;;;;;;;13.53;7.67;;;;;;;3.66;73.12;97578.50;4371861;32;20522;-76
2020/12/03 11:42:03;;;;;;;9.93;8.20;;;;;;;3.67;72.59;97569.72;4384834;32;20176;-76
2020/12/03 11:44:48;;;;;;;11.73;8.40;;;;;;;3.67;73.70;97572.34;4381579;32;20497;-76
2020/12/03 11:50:29;;;;;;;10.27;6.57;;;;;;;3.62;73.56;97555.28;4387450;32;20175;-75
2020/12/03 11:53:12;;;;;;;8.97;6.53;;;;;;;3.76;72.87;97553.44;4379131;32;20233;-76
2020/12/03 11:55:44;;;;;;;8.03;5.97;;;;;;;3.63;73.44;97541.25;4383735;32;20216;-75
2020/12/03 11:58:16;;;;;;;8.70;6.17;;;;;;;3.60;72.68;97542.31;4383508;32;20904;-75
2020/12/03 12:00:48;;;;;;;8.13;6.53;;;;;;;3.64;72.92;97532.50;4389616;32;20167;-75
2020/12/03 12:03:21;;;;;;;8.17;7.03;;;;;;;3.65;73.69;97529.78;4388737;32;20148;-73
2020/12/03 12:06:08;;;;;;;9.43;6.67;;;;;;;3.72;73.18;97535.47;4383509;32;20165;-74
2020/12/03 12:08:43;;;;;;;8.77;6.60;;;;;;;3.75;73.22;97515.22;4386384;32;20553;-76
2020/12/03 12:11:18;;;;;;;7.20;5.87;;;;;;;3.71;73.13;97503.28;4387827;32;20151;-73
2020/12/03 12:14:02;;;;;;;9.63;6.60;;;;;;;3.73;73.13;97488.38;4387903;32;20173;-75
2020/12/03 12:16:34;;;;;;;8.03;7.20;;;;;;;3.76;72.95;97479.50;4386711;32;20274;-75
2020/12/03 12:19:07;;;;;;;10.73;7.10;;;;;;;3.74;73.54;97474.34;4377635;32;20199;-76